createdAt,value
2019-05-20T00:01:00.722Z,28.8
2019-05-20T00:02:02.880Z,28.8
2019-05-20T00:03:05.310Z,28.7
2019-05-20T00:04:07.200Z,28.5
2019-05-20T00:05:08.820Z,28.7
2019-05-20T00:06:11.288Z,28.7
2019-05-20T00:07:13.933Z,28.6
2019-05-20T00:08:15.533Z,28.4
2019-05-20T00:09:17.963Z,28.3
2019-05-20T00:10:20.395Z,28.9
2019-05-20T00:11:22.824Z,28.4
2019-05-20T00:12:25.260Z,28.7
2019-05-20T00:13:27.720Z,28.3
2019-05-20T00:14:29.568Z,28.8
2019-05-20T00:15:31.726Z,28.7
2019-05-20T00:16:34.161Z,28.6
2019-05-20T00:17:36.572Z,28.5
2019-05-20T00:18:38.746Z,28.2
2019-05-20T00:19:41.213Z,28.4
2019-05-20T00:20:43.424Z,28.4
2019-05-20T00:21:45.866Z,29
2019-05-20T00:22:48.306Z,28.5
2019-05-20T00:23:50.515Z,28.7
2019-05-20T00:24:53.178Z,28.7
2019-05-20T00:25:55.397Z,28.3
2019-05-20T00:26:57.824Z,28.4
2019-05-20T00:27:59.997Z,28.6
2019-05-20T00:29:02.178Z,28.5
2019-05-20T00:30:04.353Z,28.6
2019-05-20T00:31:06.795Z,28.7
2019-05-20T00:32:09.232Z,28.9
2019-05-20T00:33:11.648Z,28.8
2019-05-20T00:34:13.556Z,29
2019-05-20T00:35:15.981Z,28.9
2019-05-20T00:36:18.439Z,28.8
2019-05-20T00:37:20.946Z,28.4
2019-05-20T00:38:23.365Z,29
2019-05-20T00:39:25.786Z,29
2019-05-20T00:40:28.206Z,29
2019-05-20T00:41:30.622Z,28.6
2019-05-20T00:42:33.059Z,29
2019-05-20T00:43:35.521Z,28.8
2019-05-20T00:44:37.682Z,28.3
2019-05-20T00:45:39.568Z,28.5
2019-05-20T00:46:42.004Z,28.6
2019-05-20T00:47:44.446Z,28.6
2019-05-20T00:48:46.863Z,28.4
2019-05-20T00:49:49.015Z,28.4
2019-05-20T00:50:51.155Z,28.8
2019-05-20T00:51:53.601Z,28.9
2019-05-20T00:52:56.031Z,28.8
2019-05-20T00:53:58.466Z,28.9
2019-05-20T00:55:00.898Z,28.5
2019-05-20T00:56:03.047Z,28.9
2019-05-20T00:57:05.214Z,28.9
2019-05-20T00:58:07.644Z,28.4
2019-05-20T00:59:09.826Z,28.9
2019-05-20T01:00:11.711Z,28.5
2019-05-20T01:01:14.158Z,28.4
2019-05-20T01:02:16.574Z,28.4
2019-05-20T01:03:19.014Z,28.9
2019-05-20T01:04:21.451Z,28.9
2019-05-20T01:05:23.921Z,28.4
2019-05-20T01:06:26.086Z,28.6
2019-05-20T01:07:28.253Z,28.8
2019-05-20T01:08:30.674Z,28.9
2019-05-20T01:09:32.840Z,28.6
2019-05-20T01:10:34.992Z,28.3
2019-05-20T01:11:37.416Z,28.7
2019-05-20T01:12:39.294Z,28.9
2019-05-20T01:13:41.414Z,28.6
2019-05-20T01:14:43.840Z,28.8
2019-05-20T01:15:45.996Z,28.9
2019-05-20T01:16:48.444Z,28.6
2019-05-20T01:17:50.880Z,28.6
2019-05-20T01:18:53.299Z,28.6
2019-05-20T01:19:55.731Z,28.4
2019-05-20T01:20:57.624Z,28.9
2019-05-20T01:22:00.060Z,28.5
2019-05-20T01:23:02.489Z,28.9
2019-05-20T01:24:04.924Z,28.9
2019-05-20T01:25:07.078Z,29
2019-05-20T01:26:09.514Z,28.6
2019-05-20T01:27:11.944Z,28.7
2019-05-20T01:28:14.378Z,29
2019-05-20T01:29:16.790Z,28.9
2019-05-20T01:30:19.226Z,28.5
2019-05-20T01:31:21.680Z,28.7
2019-05-20T01:32:23.575Z,28.7
2019-05-20T01:33:26.004Z,28.6
2019-05-20T01:34:28.163Z,28.7
2019-05-20T01:35:30.048Z,28.8
2019-05-20T01:36:32.496Z,29
2019-05-20T01:37:34.736Z,28.4
2019-05-20T01:38:37.168Z,28.7
2019-05-20T01:39:39.339Z,29
2019-05-20T01:40:41.763Z,29.1
2019-05-20T01:41:44.196Z,28.8
2019-05-20T01:42:46.361Z,29.1
2019-05-20T01:43:48.798Z,28.9
2019-05-20T01:44:50.946Z,28.9
2019-05-20T01:45:53.458Z,28.6
2019-05-20T01:46:55.884Z,28.5
2019-05-20T01:47:58.051Z,28.4
2019-05-20T01:49:00.466Z,28.6
2019-05-20T01:50:02.903Z,29.1
2019-05-20T01:51:05.325Z,28.8
2019-05-20T01:52:07.769Z,28.5
2019-05-20T01:53:09.655Z,28.9
2019-05-20T01:54:11.857Z,28.9
2019-05-20T01:55:14.008Z,29.1
2019-05-20T01:56:16.436Z,29
2019-05-20T01:57:18.600Z,29.1
2019-05-20T01:58:20.754Z,28.9
2019-05-20T01:59:22.947Z,28.8
2019-05-20T02:00:25.390Z,29.2
2019-05-20T02:01:27.884Z,28.8
2019-05-20T02:02:30.255Z,29.1
2019-05-20T02:03:32.670Z,28.6
2019-05-20T02:04:34.834Z,28.9
2019-05-20T02:05:37.302Z,28.9
2019-05-20T02:06:39.806Z,29.1
2019-05-20T02:07:41.935Z,28.8
2019-05-20T02:08:44.094Z,29.1
2019-05-20T02:09:45.970Z,29
2019-05-20T02:10:48.127Z,28.8
2019-05-20T02:11:50.568Z,28.7
2019-05-20T02:12:53.007Z,29
2019-05-20T02:13:55.421Z,29.1
2019-05-20T02:14:57.873Z,28.9
2019-05-20T02:15:59.740Z,28.7
2019-05-20T02:17:02.734Z,29.2
2019-05-20T02:18:04.980Z,28.7
2019-05-20T02:19:07.401Z,29
2019-05-20T02:20:09.545Z,29
2019-05-20T02:21:11.976Z,29.3
2019-05-20T02:22:14.420Z,29.2
2019-05-20T02:23:16.587Z,29.1
2019-05-20T02:24:19.014Z,28.7
2019-05-20T02:25:21.445Z,28.8
2019-05-20T02:26:23.868Z,29.1
2019-05-20T02:27:26.324Z,28.7
2019-05-20T02:28:28.759Z,28.8
2019-05-20T02:29:31.197Z,29.1
2019-05-20T02:30:33.627Z,28.7
2019-05-20T02:31:35.776Z,28.8
2019-05-20T02:32:37.963Z,29
2019-05-20T02:33:51.397Z,28.7
2019-05-20T02:34:45.112Z,28.8
2019-05-20T02:35:47.539Z,29.1
2019-05-20T02:36:49.965Z,29.2
2019-05-20T02:37:52.395Z,29.1
2019-05-20T02:38:54.813Z,29
2019-05-20T02:39:56.977Z,28.9
2019-05-20T02:40:59.415Z,29
2019-05-20T02:42:01.828Z,29.1
2019-05-20T02:43:04.315Z,28.9
2019-05-20T02:44:06.763Z,28.8
2019-05-20T02:45:09.187Z,29.2
2019-05-20T02:46:11.647Z,28.7
2019-05-20T02:47:14.107Z,29.2
2019-05-20T02:48:16.545Z,28.9
2019-05-20T02:49:18.970Z,29.1
2019-05-20T02:50:21.396Z,28.8
2019-05-20T02:51:23.843Z,28.8
2019-05-20T02:52:26.274Z,28.6
2019-05-20T02:53:28.705Z,29
2019-05-20T02:54:31.318Z,29.2
2019-05-20T02:55:33.747Z,28.8
2019-05-20T02:56:36.175Z,29.3
2019-05-20T02:57:38.359Z,28.8
2019-05-20T02:58:40.786Z,28.7
2019-05-20T02:59:42.651Z,29.1
2019-05-20T03:00:45.077Z,28.8
2019-05-20T03:01:47.506Z,28.9
2019-05-20T03:02:49.921Z,28.8
2019-05-20T03:04:09.805Z,28.8
2019-05-20T03:04:57.321Z,28.8
2019-05-20T03:05:59.191Z,28.7
2019-05-20T03:07:01.635Z,29.1
2019-05-20T03:08:04.091Z,28.8
2019-05-20T03:09:06.527Z,29
2019-05-20T03:10:12.482Z,28.6
2019-05-20T03:11:14.636Z,29
2019-05-20T03:12:17.061Z,28.7
2019-05-20T03:13:19.225Z,28.8
2019-05-20T03:14:21.690Z,28.6
2019-05-20T03:15:24.107Z,28.4
2019-05-20T03:16:26.536Z,28.4
2019-05-20T03:17:28.974Z,28.9
2019-05-20T03:18:31.396Z,29
2019-05-20T03:19:33.825Z,29
2019-05-20T03:20:35.977Z,28.5
2019-05-20T03:21:37.847Z,28.7
2019-05-20T03:22:40.277Z,28.4
2019-05-20T03:23:42.707Z,28.4
2019-05-20T03:24:45.132Z,28.3
2019-05-20T03:25:47.296Z,28.8
2019-05-20T03:26:49.464Z,28.4
2019-05-20T03:27:52.079Z,28.7
2019-05-20T03:30:26.249Z,28.4
2019-05-20T03:31:27.841Z,28.2
2019-05-20T03:32:30.951Z,28.5
2019-05-20T03:33:33.398Z,28.2
2019-05-20T03:34:46.324Z,28.7
2019-05-20T03:35:40.826Z,28.3
2019-05-20T03:36:43.256Z,28.4
2019-05-20T03:37:45.694Z,28.4
2019-05-20T03:38:48.131Z,28.4
2019-05-20T03:39:50.538Z,28.5
2019-05-20T03:40:52.430Z,28.3
2019-05-20T03:41:54.299Z,28.3
2019-05-20T03:42:56.727Z,28.3
2019-05-20T03:43:59.166Z,28.5
2019-05-20T03:45:01.614Z,28.6
2019-05-20T03:46:04.045Z,28.4
2019-05-20T03:47:06.507Z,28.2
2019-05-20T03:48:08.970Z,28.3
2019-05-20T03:49:11.386Z,28.3
2019-05-20T03:50:13.808Z,28.3
2019-05-20T03:51:16.248Z,28.4
2019-05-20T03:52:18.414Z,28.4
2019-05-20T03:53:20.836Z,28.2
2019-05-20T03:54:22.987Z,28.3
2019-05-20T03:55:24.789Z,28.3
2019-05-20T03:56:27.237Z,28.4
2019-05-20T03:57:29.673Z,28.2
2019-05-20T03:58:32.110Z,28.4
2019-05-20T03:59:34.550Z,28.1
2019-05-20T04:00:36.705Z,28.3
2019-05-20T04:01:39.157Z,28.2
2019-05-20T04:02:41.604Z,28
2019-05-20T04:03:43.755Z,28.1
2019-05-20T04:05:00.574Z,28.1
2019-05-20T04:05:51.163Z,28.3
2019-05-20T04:06:53.315Z,28.3
2019-05-20T04:07:55.744Z,28.2
2019-05-20T04:08:58.171Z,28.2
2019-05-20T04:10:00.597Z,28.1
2019-05-20T04:11:02.788Z,28.3
2019-05-20T04:12:05.280Z,28.1
2019-05-20T04:13:07.899Z,28.1
2019-05-20T04:14:10.434Z,28.2
2019-05-20T04:15:12.941Z,28.2
2019-05-20T04:16:15.139Z,28
2019-05-20T04:17:17.582Z,28
2019-05-20T04:18:20.016Z,28.3
2019-05-20T04:19:22.169Z,28.3
2019-05-20T04:20:24.930Z,28.3
2019-05-20T04:21:27.368Z,28
2019-05-20T04:22:29.728Z,28.1
2019-05-20T04:23:33.690Z,28.1
2019-05-20T04:24:36.669Z,28
2019-05-20T04:25:38.833Z,28.1
2019-05-20T04:26:41.244Z,28
2019-05-20T04:27:43.678Z,28.1
2019-05-20T04:28:46.112Z,27.8
2019-05-20T04:29:48.899Z,28
2019-05-20T04:30:51.911Z,28
2019-05-20T04:31:54.405Z,28.1
2019-05-20T04:32:56.825Z,28.1
2019-05-20T04:33:59.327Z,27.9
2019-05-20T04:35:18.630Z,27.8
2019-05-20T04:36:07.168Z,28.2
2019-05-20T04:37:09.369Z,28.1
2019-05-20T04:38:11.973Z,28
2019-05-20T04:39:14.158Z,28.1
2019-05-20T04:40:16.627Z,28.1
2019-05-20T04:41:18.804Z,28.1
2019-05-20T04:42:20.947Z,27.9
2019-05-20T04:43:23.398Z,27.9
2019-05-20T04:44:25.814Z,27.9
2019-05-20T04:45:28.463Z,28.2
2019-05-20T04:46:31.602Z,27.9
2019-05-20T04:47:33.950Z,28
2019-05-20T04:48:36.110Z,28.1
2019-05-20T04:49:38.538Z,28.1
2019-05-20T04:50:40.985Z,28
2019-05-20T04:51:43.759Z,27.8
2019-05-20T04:52:46.203Z,27.8
2019-05-20T04:53:48.385Z,27.9
2019-05-20T04:54:51.074Z,28
2019-05-20T04:55:53.868Z,28
2019-05-20T04:56:56.057Z,27.9
2019-05-20T04:57:58.203Z,28.2
2019-05-20T04:59:00.545Z,28.2
2019-05-20T05:00:02.993Z,28
2019-05-20T05:01:05.412Z,28.2
2019-05-20T05:02:07.752Z,28.1
2019-05-20T05:03:10.186Z,28
2019-05-20T05:04:12.607Z,28.1
2019-05-20T05:05:15.590Z,28.2
2019-05-20T05:06:18.525Z,28
2019-05-20T05:07:21.159Z,28
2019-05-20T05:08:23.566Z,28.1
2019-05-20T05:09:26.189Z,28.1
2019-05-20T05:10:28.613Z,28
2019-05-20T05:11:30.793Z,28.1
2019-05-20T05:12:33.015Z,28
2019-05-20T05:13:35.638Z,27.9
2019-05-20T05:14:38.065Z,27.8
2019-05-20T05:15:40.501Z,27.9
2019-05-20T05:16:42.925Z,28.1
2019-05-20T05:17:45.343Z,28.1
2019-05-20T05:18:47.510Z,28.2
2019-05-20T05:19:49.946Z,28
2019-05-20T05:20:52.503Z,28.1
2019-05-20T05:21:54.874Z,28.2
2019-05-20T05:22:57.490Z,28
2019-05-20T05:24:00.034Z,28.1
2019-05-20T05:25:02.533Z,28.2
2019-05-20T05:26:04.778Z,28.1
2019-05-20T05:27:06.673Z,28.3
2019-05-20T05:28:09.135Z,28
2019-05-20T05:29:11.578Z,27.9
2019-05-20T05:30:14.005Z,28.2
2019-05-20T05:31:16.443Z,28.1
2019-05-20T05:32:18.605Z,28
2019-05-20T05:33:21.043Z,28.2
2019-05-20T05:34:23.496Z,28.2
2019-05-20T05:35:25.928Z,28.3
2019-05-20T05:36:29.205Z,28.2
2019-05-20T05:37:31.632Z,28
2019-05-20T05:38:33.788Z,28
2019-05-20T05:39:35.949Z,27.8
2019-05-20T05:40:38.109Z,28.1
2019-05-20T05:41:40.539Z,28.1
2019-05-20T05:42:42.966Z,28.2
2019-05-20T05:43:45.403Z,28.2
2019-05-20T05:44:47.575Z,28.2
2019-05-20T05:45:49.726Z,28
2019-05-20T05:46:51.884Z,28.1
2019-05-20T05:47:54.055Z,28.1
2019-05-20T05:48:56.480Z,28.1
2019-05-20T05:49:59.249Z,28
2019-05-20T05:51:01.563Z,28
2019-05-20T05:52:04.612Z,28.1
2019-05-20T05:53:06.476Z,28.3
2019-05-20T05:54:08.904Z,28
2019-05-20T05:55:11.381Z,28.2
2019-05-20T05:56:13.824Z,28
2019-05-20T05:57:15.988Z,28.1
2019-05-20T05:58:18.413Z,28.2
2019-05-20T05:59:20.847Z,27.9
2019-05-20T06:00:22.995Z,28
2019-05-20T06:01:25.477Z,28.3
2019-05-20T06:02:27.903Z,27.9
2019-05-20T06:03:30.328Z,28.1
2019-05-20T06:04:32.773Z,27.9
2019-05-20T06:05:35.215Z,28
2019-05-20T06:06:37.716Z,28.2
2019-05-20T06:07:40.202Z,28.1
2019-05-20T06:08:42.685Z,28.1
2019-05-20T06:09:44.865Z,28
2019-05-20T06:10:47.309Z,28
2019-05-20T06:11:49.913Z,28.2
2019-05-20T06:12:52.517Z,27.9
2019-05-20T06:13:54.987Z,28.1
2019-05-20T06:14:57.186Z,28
2019-05-20T06:15:59.689Z,28
2019-05-20T06:17:01.879Z,28.1
2019-05-20T06:18:04.345Z,28
2019-05-20T06:19:06.493Z,28
2019-05-20T06:20:08.957Z,27.9
2019-05-20T06:21:11.449Z,27.9
2019-05-20T06:22:14.543Z,28
2019-05-20T06:23:16.786Z,28
2019-05-20T06:24:19.218Z,27.8
2019-05-20T06:25:21.376Z,27.9
2019-05-20T06:26:23.536Z,28.1
2019-05-20T06:27:26.033Z,28.1
2019-05-20T06:28:28.194Z,28
2019-05-20T06:29:30.626Z,27.8
2019-05-20T06:30:33.061Z,28
2019-05-20T06:31:35.481Z,28
2019-05-20T06:32:37.667Z,28
2019-05-20T06:33:40.104Z,27.8
2019-05-20T06:34:43.104Z,28
2019-05-20T06:35:45.640Z,28
2019-05-20T06:36:47.517Z,28
2019-05-20T06:37:49.960Z,27.9
2019-05-20T06:38:52.429Z,27.9
2019-05-20T06:39:54.357Z,28
2019-05-20T06:40:56.303Z,27.9
2019-05-20T06:41:58.962Z,27.9
2019-05-20T06:43:01.172Z,28
2019-05-20T06:44:03.374Z,27.9
2019-05-20T06:45:05.233Z,28.1
2019-05-20T06:46:07.391Z,28.1
2019-05-20T06:47:09.821Z,27.8
2019-05-20T06:48:12.282Z,28
2019-05-20T06:49:14.184Z,27.8
2019-05-20T06:50:16.063Z,27.9
2019-05-20T06:51:18.220Z,28.1
2019-05-20T06:52:34.782Z,27.8
2019-05-20T06:53:25.626Z,28
2019-05-20T06:54:27.783Z,27.8
2019-05-20T06:55:29.919Z,28.2
2019-05-20T06:56:32.362Z,27.9
2019-05-20T06:57:34.866Z,28
2019-05-20T06:58:37.298Z,28.1
2019-05-20T06:59:39.146Z,27.9
2019-05-20T07:00:41.281Z,27.7
2019-05-20T07:01:43.747Z,28.1
2019-05-20T07:02:46.197Z,28
2019-05-20T07:03:48.626Z,27.9
2019-05-20T07:04:51.072Z,27.8
2019-05-20T07:05:53.510Z,27.9
2019-05-20T07:06:55.955Z,28.1
2019-05-20T07:08:01.108Z,27.8
2019-05-20T07:09:03.124Z,28.1
2019-05-20T07:10:05.564Z,27.9
2019-05-20T07:11:07.991Z,28
2019-05-20T07:12:10.422Z,27.8
2019-05-20T07:13:15.988Z,27.9
2019-05-20T07:14:17.847Z,27.7
2019-05-20T07:15:20.272Z,27.9
2019-05-20T07:16:22.439Z,27.9
2019-05-20T07:17:24.866Z,27.9
2019-05-20T07:18:27.565Z,27.8
2019-05-20T07:19:29.843Z,27.6
2019-05-20T07:20:32.269Z,27.8
2019-05-20T07:21:34.697Z,27.8
2019-05-20T07:22:54.424Z,27.7
2019-05-20T07:23:42.123Z,27.6
2019-05-20T07:24:44.553Z,27.8
2019-05-20T07:25:46.724Z,27.8
2019-05-20T07:26:49.172Z,27.7
2019-05-20T07:27:51.988Z,27.9
2019-05-20T07:28:54.457Z,27.8
2019-05-20T07:29:56.653Z,27.9
2019-05-20T07:30:59.004Z,27.6
2019-05-20T07:32:01.306Z,27.9
2019-05-20T07:33:03.525Z,27.7
2019-05-20T07:34:05.979Z,27.8
2019-05-20T07:35:08.128Z,27.8
2019-05-20T07:36:10.282Z,27.8
2019-05-20T07:37:12.209Z,27.5
2019-05-20T07:38:14.363Z,28
2019-05-20T07:39:16.794Z,27.8
2019-05-20T07:40:18.944Z,27.9
2019-05-20T07:41:21.144Z,27.7
2019-05-20T07:42:23.313Z,27.9
2019-05-20T07:43:25.831Z,27.6
2019-05-20T07:44:28.264Z,27.9
2019-05-20T07:45:30.727Z,27.7
2019-05-20T07:46:33.257Z,28
2019-05-20T07:47:35.172Z,27.6
2019-05-20T07:48:36.822Z,28
2019-05-20T07:49:40.075Z,28.1
2019-05-20T07:50:42.505Z,27.9
2019-05-20T07:51:45.089Z,27.8
2019-05-20T07:52:47.710Z,27.7
2019-05-20T07:53:50.157Z,27.9
2019-05-20T07:54:52.900Z,27.9
2019-05-20T07:55:54.801Z,27.7
2019-05-20T07:56:56.973Z,28
2019-05-20T07:57:59.413Z,27.8
2019-05-20T07:59:01.666Z,27.5
2019-05-20T08:00:04.108Z,27.6
2019-05-20T08:01:06.542Z,27.8
2019-05-20T08:02:08.962Z,27.6
2019-05-20T08:03:10.852Z,27.7
2019-05-20T08:04:13.333Z,27.9
2019-05-20T08:05:16.151Z,28.1
2019-05-20T08:06:18.586Z,27.9
2019-05-20T08:07:27.787Z,28
2019-05-20T08:08:26.162Z,27.9
2019-05-20T08:09:28.686Z,27.8
2019-05-20T08:10:31.112Z,28
2019-05-20T08:11:33.020Z,27.9
2019-05-20T08:12:35.203Z,27.8
2019-05-20T08:13:37.361Z,27.9
2019-05-20T08:14:39.526Z,27.8
2019-05-20T08:15:41.722Z,28
2019-05-20T08:16:43.875Z,27.9
2019-05-20T08:17:46.393Z,28
2019-05-20T08:18:48.964Z,28
2019-05-20T08:19:51.510Z,28.1
2019-05-20T08:20:53.674Z,28.1
2019-05-20T08:21:56.021Z,28
2019-05-20T08:22:58.487Z,28.1
2019-05-20T08:24:00.919Z,28
2019-05-20T08:25:03.791Z,27.8
2019-05-20T08:26:06.205Z,28.1
2019-05-20T08:27:08.641Z,28.1
2019-05-20T08:28:11.118Z,28
2019-05-20T08:29:13.548Z,27.9
2019-05-20T08:30:15.994Z,27.9
2019-05-20T08:31:18.425Z,27.9
2019-05-20T08:32:20.855Z,27.8
2019-05-20T08:33:23.209Z,28
2019-05-20T08:34:25.633Z,27.9
2019-05-20T08:35:27.947Z,27.8
2019-05-20T08:36:30.386Z,28
2019-05-20T08:37:44.636Z,28
2019-05-20T08:38:37.938Z,27.7
2019-05-20T08:39:40.411Z,27.8
2019-05-20T08:40:42.847Z,27.8
2019-05-20T08:41:48.786Z,27.7
2019-05-20T08:42:50.944Z,28
2019-05-20T08:43:52.835Z,27.8
2019-05-20T08:44:54.995Z,27.8
2019-05-20T08:45:57.146Z,27.6
2019-05-20T08:46:59.141Z,27.9
2019-05-20T08:48:01.626Z,28
2019-05-20T08:49:04.078Z,27.8
2019-05-20T08:50:15.434Z,27.9
2019-05-20T08:51:14.999Z,27.7
2019-05-20T08:52:17.418Z,28
2019-05-20T08:53:19.593Z,27.7
2019-05-20T08:54:22.120Z,27.9
2019-05-20T08:55:24.481Z,27.8
2019-05-20T08:56:26.917Z,28
2019-05-20T08:57:29.083Z,27.9
2019-05-20T08:58:31.526Z,27.6
2019-05-20T08:59:33.963Z,27.9
2019-05-20T09:00:36.118Z,27.8
2019-05-20T09:01:38.013Z,28
2019-05-20T09:02:40.462Z,27.7
2019-05-20T09:03:42.609Z,27.8
2019-05-20T09:04:45.025Z,27.9
2019-05-20T09:05:47.467Z,28
2019-05-20T09:06:49.748Z,27.8
2019-05-20T09:08:01.944Z,27.8
2019-05-20T09:08:57.275Z,28.1
2019-05-20T09:09:59.699Z,27.9
2019-05-20T09:11:01.976Z,27.8
2019-05-20T09:12:04.416Z,27.8
2019-05-20T09:13:06.916Z,27.8
2019-05-20T09:14:09.351Z,27.9
2019-05-20T09:15:11.786Z,27.7
2019-05-20T09:16:13.664Z,27.8
2019-05-20T09:17:16.256Z,27.9
2019-05-20T09:18:18.696Z,28
2019-05-20T09:19:21.148Z,27.8
2019-05-20T09:20:23.731Z,27.7
2019-05-20T09:21:26.659Z,27.7
2019-05-20T09:22:29.106Z,27.9
2019-05-20T09:23:31.340Z,28
2019-05-20T09:24:33.924Z,27.9
2019-05-20T09:25:36.894Z,27.9
2019-05-20T09:26:39.055Z,28
2019-05-20T09:27:41.485Z,27.8
2019-05-20T09:28:43.921Z,27.8
2019-05-20T09:29:46.400Z,27.8
2019-05-20T09:30:48.280Z,27.9
2019-05-20T09:31:50.589Z,28
2019-05-20T09:32:52.776Z,27.8
2019-05-20T09:33:54.914Z,27.9
2019-05-20T09:34:57.096Z,27.9
2019-05-20T09:35:59.661Z,27.9
2019-05-20T09:37:02.937Z,27.8
2019-05-20T09:38:17.597Z,27.9
2019-05-20T09:39:10.361Z,27.7
2019-05-20T09:40:12.516Z,28
2019-05-20T09:41:14.973Z,27.9
2019-05-20T09:42:17.394Z,27.9
2019-05-20T09:43:19.543Z,27.9
2019-05-20T09:44:21.979Z,27.8
2019-05-20T09:45:24.509Z,27.9
2019-05-20T09:46:26.665Z,27.9
2019-05-20T09:47:29.108Z,28
2019-05-20T09:48:31.602Z,27.7
2019-05-20T09:49:34.067Z,27.9
2019-05-20T09:50:36.390Z,28
2019-05-20T09:51:38.843Z,27.9
2019-05-20T09:52:41.332Z,28.1
2019-05-20T09:53:43.763Z,28.1
2019-05-20T09:54:45.932Z,28
2019-05-20T09:55:47.789Z,28
2019-05-20T09:56:50.258Z,28
2019-05-20T09:57:52.695Z,27.9
2019-05-20T09:58:55.123Z,27.7
2019-05-20T09:59:57.541Z,27.8
2019-05-20T10:00:59.669Z,27.9
2019-05-20T10:02:01.857Z,27.9
2019-05-20T10:03:03.825Z,27.8
2019-05-20T10:04:08.896Z,27.8
2019-05-20T10:05:11.040Z,27.9
2019-05-20T10:06:13.495Z,27.8
2019-05-20T10:07:15.439Z,27.9
2019-05-20T10:08:34.418Z,28
2019-05-20T10:09:22.879Z,27.8
2019-05-20T10:10:25.017Z,27.9
2019-05-20T10:11:27.441Z,28
2019-05-20T10:12:44.976Z,28.2
2019-05-20T10:13:34.587Z,27.8
2019-05-20T10:14:37.025Z,27.9
2019-05-20T10:15:39.476Z,28.2
2019-05-20T10:16:41.640Z,27.9
2019-05-20T10:17:44.076Z,28
2019-05-20T10:18:46.514Z,28.1
2019-05-20T10:19:48.935Z,28
2019-05-20T10:20:51.387Z,27.7
2019-05-20T10:21:53.542Z,28.2
2019-05-20T10:22:55.962Z,28
2019-05-20T10:23:58.136Z,27.8
2019-05-20T10:25:00.324Z,27.9
2019-05-20T10:26:02.609Z,27.8
2019-05-20T10:27:04.503Z,28
2019-05-20T10:28:06.934Z,28.1
2019-05-20T10:29:09.442Z,27.8
2019-05-20T10:30:11.877Z,27.9
2019-05-20T10:31:14.375Z,28
2019-05-20T10:32:16.805Z,27.9
2019-05-20T10:33:19.234Z,27.8
2019-05-20T10:34:21.387Z,28.3
2019-05-20T10:35:23.597Z,27.7
2019-05-20T10:36:25.737Z,28.1
2019-05-20T10:37:27.636Z,28
2019-05-20T10:38:30.059Z,28.1
2019-05-20T10:39:32.323Z,28
2019-05-20T10:40:34.481Z,28
2019-05-20T10:41:36.643Z,27.9
2019-05-20T10:42:38.829Z,28
2019-05-20T10:43:41.257Z,28
2019-05-20T10:44:43.678Z,28
2019-05-20T10:45:45.858Z,27.9
2019-05-20T10:46:48.015Z,27.7
2019-05-20T10:47:49.974Z,28
2019-05-20T10:48:53.060Z,28
2019-05-20T10:49:55.518Z,28.1
2019-05-20T10:50:57.691Z,27.6
2019-05-20T10:51:59.869Z,28.2
2019-05-20T10:53:02.037Z,27.9
2019-05-20T10:54:04.554Z,28.1
2019-05-20T10:55:06.976Z,27.7
2019-05-20T10:56:09.381Z,27.7
2019-05-20T10:57:13.235Z,27.9
2019-05-20T10:58:15.400Z,28
2019-05-20T10:59:17.622Z,28.2
2019-05-20T11:00:19.777Z,28
2019-05-20T11:01:22.209Z,27.9
2019-05-20T11:02:24.417Z,28
2019-05-20T11:03:30.851Z,27.9
2019-05-20T11:04:35.481Z,27.8
2019-05-20T11:05:38.257Z,28
2019-05-20T11:06:40.686Z,28
2019-05-20T11:07:42.849Z,27.9
2019-05-20T11:08:45.546Z,27.8
2019-05-20T11:09:47.974Z,27.9
2019-05-20T11:10:50.423Z,27.7
2019-05-20T11:11:52.689Z,28.2
2019-05-20T11:12:54.851Z,27.8
2019-05-20T11:13:56.730Z,27.7
2019-05-20T11:14:59.173Z,28.2
2019-05-20T11:16:01.615Z,28
2019-05-20T11:17:04.106Z,27.9
2019-05-20T11:18:06.536Z,27.9
2019-05-20T11:19:08.964Z,28.1
2019-05-20T11:20:11.383Z,27.8
2019-05-20T11:21:13.827Z,27.8
2019-05-20T11:22:16.502Z,27.9
2019-05-20T11:23:18.952Z,27.9
2019-05-20T11:24:21.086Z,28
2019-05-20T11:25:23.519Z,27.8
2019-05-20T11:26:26.049Z,27.4
2019-05-20T11:27:28.508Z,28
2019-05-20T11:28:30.666Z,28
2019-05-20T11:29:32.817Z,28
2019-05-20T11:30:35.243Z,27.9
2019-05-20T11:31:37.390Z,27.7
2019-05-20T11:32:39.286Z,27.9
2019-05-20T11:33:41.768Z,28.1
2019-05-20T11:34:44.191Z,27.9
2019-05-20T11:35:46.807Z,28
2019-05-20T11:36:49.236Z,27.8
2019-05-20T11:37:51.679Z,27.8
2019-05-20T11:38:53.817Z,27.6
2019-05-20T11:39:56.465Z,28
2019-05-20T11:42:34.482Z,27.8
2019-05-20T11:43:36.926Z,28.1
2019-05-20T11:44:39.081Z,28
2019-05-20T11:45:42.051Z,28.1
2019-05-20T11:46:44.472Z,27.9
2019-05-20T11:47:46.938Z,27.9
2019-05-20T11:48:49.995Z,27.9
2019-05-20T11:49:53.035Z,28
2019-05-20T11:50:55.467Z,27.8
2019-05-20T11:51:57.603Z,27.8
2019-05-20T11:53:00.104Z,27.8
2019-05-20T11:54:02.558Z,27.9
2019-05-20T11:55:04.998Z,27.9
2019-05-20T11:56:07.449Z,27.8
2019-05-20T11:57:13.119Z,28.2
2019-05-20T11:58:16.560Z,28
2019-05-20T11:59:19.356Z,27.8
2019-05-20T12:00:23.328Z,27.9
2019-05-20T12:01:25.854Z,27.7
2019-05-20T12:02:28.103Z,28
2019-05-20T12:03:30.548Z,28.1
2019-05-20T12:04:32.706Z,27.6
2019-05-20T12:05:34.876Z,27.9
2019-05-20T12:06:37.876Z,27.8
2019-05-20T12:07:40.310Z,27.7
2019-05-20T12:08:42.781Z,28.1
2019-05-20T12:09:49.391Z,27.9
2019-05-20T12:10:50.208Z,27.8
2019-05-20T12:11:52.640Z,28.1
2019-05-20T12:12:54.800Z,28
2019-05-20T12:13:57.260Z,28
2019-05-20T12:14:59.414Z,28
2019-05-20T12:16:03.657Z,28
2019-05-20T12:17:06.187Z,28
2019-05-20T12:18:08.630Z,28
2019-05-20T12:19:11.845Z,28.1
2019-05-20T12:20:14.288Z,27.8
2019-05-20T12:21:16.749Z,27.9
2019-05-20T12:22:19.521Z,28.1
2019-05-20T12:23:21.959Z,27.8
2019-05-20T12:24:24.156Z,28
2019-05-20T12:25:26.648Z,27.8
2019-05-20T12:26:28.789Z,27.9
2019-05-20T12:27:31.230Z,27.9
2019-05-20T12:28:33.685Z,28
2019-05-20T12:29:35.846Z,27.9
2019-05-20T12:30:37.776Z,27.8
2019-05-20T12:31:40.244Z,27.9
2019-05-20T12:32:42.140Z,27.8
2019-05-20T12:33:44.592Z,28.1
2019-05-20T12:34:47.028Z,27.9
2019-05-20T12:35:49.759Z,27.8
2019-05-20T12:36:52.019Z,28
2019-05-20T12:37:54.447Z,27.8
2019-05-20T12:38:56.595Z,27.7
2019-05-20T12:40:06.849Z,27.7
2019-05-20T12:41:03.726Z,28.2
2019-05-20T12:42:06.162Z,27.9
2019-05-20T12:43:08.320Z,28.1
2019-05-20T12:44:13.038Z,28.1
2019-05-20T12:45:15.736Z,28.1
2019-05-20T12:46:18.165Z,27.8
2019-05-20T12:47:20.607Z,27.8
2019-05-20T12:48:23.039Z,27.9
2019-05-20T12:49:26.247Z,27.9
2019-05-20T12:50:29.317Z,28
2019-05-20T12:51:31.757Z,28
2019-05-20T12:52:33.927Z,27.9
2019-05-20T12:53:36.557Z,27.9
2019-05-20T12:54:38.985Z,28.2
2019-05-20T12:55:41.407Z,27.9
2019-05-20T12:56:43.575Z,28.1
2019-05-20T12:57:45.745Z,28.3
2019-05-20T12:58:47.908Z,28
2019-05-20T12:59:50.357Z,28
2019-05-20T13:00:52.536Z,28.1
2019-05-20T13:01:54.951Z,28.1
2019-05-20T13:02:57.370Z,28.2
2019-05-20T13:03:59.792Z,27.9
2019-05-20T13:05:02.339Z,28.2
2019-05-20T13:06:04.788Z,28.2
2019-05-20T13:07:06.938Z,28.2
2019-05-20T13:08:09.123Z,28
2019-05-20T13:09:11.430Z,27.9
2019-05-20T13:10:28.721Z,28
2019-05-20T13:11:18.852Z,28
2019-05-20T13:12:21.277Z,28.1
2019-05-20T13:13:23.744Z,27.8
2019-05-20T13:14:25.592Z,28
2019-05-20T13:15:28.062Z,28.1
2019-05-20T13:16:30.494Z,28
2019-05-20T13:17:33.115Z,28.1
2019-05-20T13:18:35.553Z,27.9
2019-05-20T13:19:37.986Z,27.9
2019-05-20T13:20:40.415Z,28.1
2019-05-20T13:21:43.205Z,28
2019-05-20T13:22:45.622Z,27.6
2019-05-20T13:23:48.903Z,28.1
2019-05-20T13:24:51.535Z,27.8
2019-05-20T13:25:53.960Z,28
2019-05-20T13:26:56.511Z,28
2019-05-20T13:27:58.948Z,27.9
2019-05-20T13:29:00.841Z,28
2019-05-20T13:30:03.143Z,28
2019-05-20T13:31:06.227Z,27.9
2019-05-20T13:32:08.682Z,27.9
2019-05-20T13:33:10.846Z,27.9
2019-05-20T13:34:13.478Z,27.9
2019-05-20T13:35:19.432Z,28
2019-05-20T13:36:21.875Z,27.9
2019-05-20T13:37:24.309Z,27.9
2019-05-20T13:38:26.734Z,27.7
2019-05-20T13:39:28.877Z,28
2019-05-20T13:40:45.489Z,28
2019-05-20T13:41:36.294Z,28.1
2019-05-20T13:42:38.436Z,28.3
2019-05-20T13:43:40.895Z,28
2019-05-20T13:44:43.062Z,27.9
2019-05-20T13:45:47.889Z,27.9
2019-05-20T13:46:50.477Z,28.2
2019-05-20T13:47:52.918Z,28
2019-05-20T13:48:55.448Z,27.8
2019-05-20T13:49:58.618Z,28.1
2019-05-20T13:51:00.800Z,27.9
2019-05-20T13:52:03.136Z,27.8
2019-05-20T13:53:05.563Z,27.9
2019-05-20T13:54:07.722Z,28.1
2019-05-20T13:55:09.929Z,27.9
2019-05-20T13:56:13.036Z,28
2019-05-20T13:57:14.906Z,28
2019-05-20T13:58:16.874Z,27.9
2019-05-20T13:59:19.348Z,27.9
2019-05-20T14:00:21.773Z,27.9
2019-05-20T14:01:24.225Z,28
2019-05-20T14:02:26.388Z,27.9
2019-05-20T14:03:28.810Z,27.8
2019-05-20T14:04:31.243Z,27.9
2019-05-20T14:05:33.680Z,28
2019-05-20T14:06:36.113Z,27.9